Time;durP1;ratioP1;P1;durP2;ratioP2;P2;SDS_P1;SDS_P2;PMS_P1;PMS_P2;Temp;Humidity;BMP_temperature;BMP_pressure;BME280_temperature;BME280_humidity;BME280_pressure;Samples;Min_cycle;Max_cycle;Signal;HPM_P1;HPM_P2
2021/09/24 00:00:29;;;;;;;14.63;8.27;;;8.30;99.90;;;;;;4126333;28;20755;-71
2021/09/24 00:02:30;;;;;;;13.23;8.03;;;8.30;99.90;;;;;;4127280;28;20484;-73
2021/09/24 00:04:35;;;;;;;13.00;8.47;;;8.20;99.90;;;;;;4127245;28;20090;-68
2021/09/24 00:06:36;;;;;;;16.33;9.57;;;8.20;99.90;;;;;;4127669;28;20057;-70
2021/09/24 00:08:37;;;;;;;14.37;8.80;;;8.30;99.90;;;;;;4127053;28;20434;-70
2021/09/24 00:10:39;;;;;;;19.57;9.63;;;8.30;99.90;;;;;;4127073;28;20084;-71
2021/09/24 00:12:40;;;;;;;13.30;7.67;;;8.30;99.90;;;;;;4127472;28;20085;-62
2021/09/24 00:14:42;;;;;;;12.93;7.10;;;8.40;99.90;;;;;;4126486;28;20081;-71
2021/09/24 00:16:43;;;;;;;13.20;7.83;;;8.50;99.90;;;;;;4127674;28;20116;-67
2021/09/24 00:18:44;;;;;;;12.00;7.47;;;8.50;99.90;;;;;;4126753;28;20486;-66
2021/09/24 00:20:45;;;;;;;12.47;7.03;;;8.60;99.90;;;;;;4127696;28;20818;-66
2021/09/24 00:22:47;;;;;;;15.10;7.40;;;8.70;99.90;;;;;;4126747;28;20042;-71
2021/09/24 00:24:48;;;;;;;13.30;7.87;;;8.70;99.90;;;;;;4127470;28;20030;-66
2021/09/24 00:26:49;;;;;;;14.60;8.20;;;8.80;99.90;;;;;;4126020;28;20105;-69
2021/09/24 00:28:51;;;;;;;14.87;8.37;;;8.70;99.90;;;;;;4127501;28;20182;-68
2021/09/24 00:30:52;;;;;;;17.70;8.50;;;8.70;99.90;;;;;;4126218;28;20584;-73
2021/09/24 00:32:55;;;;;;;15.40;8.33;;;8.60;99.90;;;;;;4127598;28;20100;-64
2021/09/24 00:34:56;;;;;;;14.97;8.43;;;8.50;99.90;;;;;;4126735;28;20089;-70
2021/09/24 00:36:58;;;;;;;16.23;8.67;;;8.50;99.90;;;;;;4127526;28;20533;-63
2021/09/24 00:38:59;;;;;;;16.50;9.30;;;8.40;99.90;;;;;;4126570;28;20034;-62
2021/09/24 00:41:00;;;;;;;16.03;9.53;;;8.30;99.90;;;;;;4126936;28;20038;-66
2021/09/24 00:43:02;;;;;;;17.00;10.63;;;8.20;99.90;;;;;;4126789;28;20050;-67
2021/09/24 00:45:05;;;;;;;16.70;9.37;;;8.20;99.90;;;;;;4124767;28;20050;-68
2021/09/24 00:47:07;;;;;;;16.37;8.80;;;8.30;99.90;;;;;;4127481;28;20139;-69
2021/09/24 00:49:10;;;;;;;16.97;8.77;;;8.30;99.90;;;;;;4126206;28;20108;-64
2021/09/24 00:51:11;;;;;;;18.40;8.30;;;8.30;99.90;;;;;;4126790;28;20120;-69
2021/09/24 00:53:12;;;;;;;14.07;8.00;;;8.40;99.90;;;;;;4126168;28;20031;-64
2021/09/24 00:55:13;;;;;;;14.97;8.27;;;8.40;99.90;;;;;;4126289;28;20104;-69
2021/09/24 00:57:15;;;;;;;18.53;8.50;;;8.50;99.90;;;;;;4126302;28;20050;-72
2021/09/24 00:59:16;;;;;;;18.23;9.33;;;8.60;99.90;;;;;;4127309;28;20795;-70
2021/09/24 01:01:17;;;;;;;14.83;9.17;;;8.50;99.90;;;;;;4125380;28;20038;-72
2021/09/24 01:03:18;;;;;;;19.93;9.77;;;8.40;99.90;;;;;;4126927;28;20046;-72
2021/09/24 01:05:21;;;;;;;17.33;9.80;;;8.40;99.90;;;;;;4126114;28;20030;-71
2021/09/24 01:07:22;;;;;;;15.67;8.30;;;8.40;99.90;;;;;;4127468;28;20026;-71
2021/09/24 01:09:25;;;;;;;18.73;9.77;;;8.40;99.90;;;;;;4126014;28;20528;-67
2021/09/24 01:11:26;;;;;;;15.30;9.37;;;8.40;99.90;;;;;;4126768;28;20112;-63
2021/09/24 01:13:27;;;;;;;16.17;9.40;;;8.40;99.90;;;;;;4126608;28;20096;-64
2021/09/24 01:15:28;;;;;;;16.17;9.53;;;8.40;99.90;;;;;;4126142;28;20062;-63
2021/09/24 01:17:29;;;;;;;18.07;10.53;;;8.40;99.90;;;;;;4125198;28;20521;-69
2021/09/24 01:19:31;;;;;;;18.67;10.17;;;8.30;99.90;;;;;;4125269;28;20054;-67
2021/09/24 01:21:32;;;;;;;13.07;8.87;;;8.30;99.90;;;;;;4127278;28;20057;-74
2021/09/24 01:23:33;;;;;;;18.67;10.47;;;8.20;99.90;;;;;;4125775;28;20105;-66
2021/09/24 01:25:35;;;;;;;14.47;9.23;;;8.20;99.90;;;;;;4126867;28;20038;-71
2021/09/24 01:27:36;;;;;;;16.77;9.53;;;8.10;99.90;;;;;;4125515;28;20368;-69
2021/09/24 01:29:37;;;;;;;14.90;8.43;;;8.20;99.90;;;;;;4127205;28;20360;-69
2021/09/24 01:31:40;;;;;;;19.33;9.93;;;8.10;99.90;;;;;;4125780;28;20430;-66
2021/09/24 01:33:48;;;;;;;16.97;9.07;;;8.20;99.90;;;;;;4126571;28;20035;-70
2021/09/24 01:35:49;;;;;;;19.50;9.37;;;8.20;99.90;;;;;;4124234;28;20085;-69
2021/09/24 01:37:50;;;;;;;15.80;9.60;;;8.20;99.90;;;;;;4126302;28;20058;-71
2021/09/24 01:39:51;;;;;;;19.60;9.90;;;8.20;99.90;;;;;;4125607;28;20076;-70
2021/09/24 01:41:53;;;;;;;20.13;10.67;;;8.10;99.90;;;;;;4126728;28;20430;-67
2021/09/24 01:43:54;;;;;;;17.37;10.13;;;7.90;99.90;;;;;;4125953;28;20030;-67
2021/09/24 01:45:55;;;;;;;18.10;10.63;;;7.80;99.90;;;;;;4125652;28;20038;-72
2021/09/24 01:47:56;;;;;;;20.73;10.33;;;7.80;99.90;;;;;;4125980;28;20038;-70
2021/09/24 01:49:58;;;;;;;19.57;10.47;;;7.80;99.90;;;;;;4124603;28;20443;-70
2021/09/24 01:51:59;;;;;;;19.27;9.93;;;7.70;99.90;;;;;;4126096;28;20426;-63
2021/09/24 01:54:01;;;;;;;18.80;9.80;;;7.70;99.90;;;;;;4123901;28;20043;-71
2021/09/24 01:56:02;;;;;;;14.43;9.13;;;7.70;99.90;;;;;;4126008;28;20125;-67
2021/09/24 01:58:03;;;;;;;19.20;8.83;;;7.70;99.90;;;;;;4125191;28;20062;-71
2021/09/24 02:00:08;;;;;;;14.17;9.03;;;7.70;99.90;;;;;;4126739;28;20038;-67
2021/09/24 02:02:09;;;;;;;15.93;8.70;;;7.70;99.90;;;;;;4124996;28;20077;-62
2021/09/24 02:04:10;;;;;;;14.90;8.67;;;7.70;99.90;;;;;;4126150;28;20054;-67
2021/09/24 02:06:12;;;;;;;16.00;8.40;;;7.80;99.90;;;;;;4125279;28;20048;-67
2021/09/24 02:08:13;;;;;;;17.67;8.33;;;7.80;99.90;;;;;;4126775;28;20054;-64
2021/09/24 02:10:14;;;;;;;15.33;9.17;;;7.80;99.90;;;;;;4125056;28;20092;-71
2021/09/24 02:12:16;;;;;;;15.77;8.47;;;7.90;99.90;;;;;;4125596;28;20178;-67
2021/09/24 02:14:17;;;;;;;17.37;8.90;;;7.90;99.90;;;;;;4125558;28;20085;-66
2021/09/24 02:16:18;;;;;;;19.43;9.27;;;7.80;99.90;;;;;;4125010;28;20486;-70
2021/09/24 02:18:20;;;;;;;16.57;9.13;;;7.70;99.90;;;;;;4125541;28;20038;-62
2021/09/24 02:20:21;;;;;;;13.87;8.60;;;7.60;99.90;;;;;;4124704;28;20030;-69
2021/09/24 02:22:23;;;;;;;16.30;9.50;;;7.50;99.90;;;;;;4126080;28;20070;-65
2021/09/24 02:24:24;;;;;;;13.77;9.17;;;7.50;99.90;;;;;;4124398;28;20042;-67
2021/09/24 02:26:26;;;;;;;16.60;9.67;;;7.40;99.90;;;;;;4125896;28;20057;-73
2021/09/24 02:28:27;;;;;;;16.30;9.50;;;7.40;99.90;;;;;;4124725;28;20101;-72
2021/09/24 02:30:28;;;;;;;16.20;8.53;;;7.30;99.90;;;;;;4126211;28;20042;-68
2021/09/24 02:32:29;;;;;;;12.57;8.70;;;7.30;99.90;;;;;;4124010;28;20043;-66
2021/09/24 02:34:31;;;;;;;18.13;9.47;;;7.30;99.90;;;;;;4125628;28;20030;-66
2021/09/24 02:36:32;;;;;;;17.83;9.30;;;7.30;99.90;;;;;;4124479;28;20050;-70
2021/09/24 02:38:34;;;;;;;17.83;10.03;;;7.30;99.90;;;;;;4126020;28;20042;-75
2021/09/24 02:40:36;;;;;;;12.33;7.40;;;7.30;99.90;;;;;;4124730;28;20112;-64
2021/09/24 02:42:37;;;;;;;13.47;7.93;;;7.30;99.90;;;;;;4125508;28;20038;-69
2021/09/24 02:44:38;;;;;;;17.67;9.00;;;7.30;99.90;;;;;;4125056;28;20014;-73
2021/09/24 02:46:40;;;;;;;16.13;9.00;;;7.30;99.90;;;;;;4124724;28;20550;-69
2021/09/24 02:48:41;;;;;;;17.33;8.37;;;7.20;99.90;;;;;;4124904;28;20495;-66
2021/09/24 02:50:42;;;;;;;16.37;8.30;;;7.20;99.90;;;;;;4124110;28;20038;-71
2021/09/24 02:52:43;;;;;;;17.87;8.93;;;7.10;99.90;;;;;;4125333;28;20060;-70
2021/09/24 02:54:44;;;;;;;20.27;9.87;;;7.00;99.90;;;;;;4124255;28;20038;-67
2021/09/24 02:56:46;;;;;;;20.30;9.57;;;6.90;99.90;;;;;;4125443;28;20081;-71
2021/09/24 02:58:47;;;;;;;14.07;7.93;;;6.90;99.90;;;;;;4124099;28;20038;-72
2021/09/24 03:00:48;;;;;;;22.80;9.77;;;6.80;99.90;;;;;;4125463;28;20042;-74
2021/09/24 03:02:49;;;;;;;13.47;7.93;;;6.80;99.90;;;;;;4123520;28;20112;-72
2021/09/24 03:04:50;;;;;;;15.53;9.00;;;6.80;99.90;;;;;;4125059;28;20454;-67
2021/09/24 03:06:51;;;;;;;15.40;8.43;;;6.80;99.90;;;;;;4124463;28;20050;-72
2021/09/24 03:08:53;;;;;;;14.67;8.63;;;6.80;99.90;;;;;;4124936;28;20148;-69
2021/09/24 03:10:54;;;;;;;16.47;8.67;;;6.70;99.90;;;;;;4124225;28;20034;-69
2021/09/24 03:12:55;;;;;;;16.40;9.07;;;6.70;99.90;;;;;;4124923;28;20022;-73
2021/09/24 03:14:56;;;;;;;16.77;9.07;;;6.60;99.90;;;;;;4123659;28;20096;-70
2021/09/24 03:16:58;;;;;;;15.10;8.50;;;6.60;99.90;;;;;;4124498;28;20054;-63
2021/09/24 03:18:59;;;;;;;13.33;8.37;;;6.60;99.90;;;;;;4123829;28;20509;-67
2021/09/24 03:21:00;;;;;;;13.60;8.93;;;6.60;99.90;;;;;;4124062;28;20038;-73
2021/09/24 03:23:02;;;;;;;15.43;8.50;;;6.60;99.90;;;;;;4125049;28;20043;-72
2021/09/24 03:25:04;;;;;;;15.87;8.57;;;6.60;99.90;;;;;;4123964;28;20026;-69
2021/09/24 03:27:06;;;;;;;15.70;8.33;;;6.60;99.90;;;;;;4124986;28;20517;-62
2021/09/24 03:29:08;;;;;;;13.47;8.13;;;6.60;99.90;;;;;;4123717;28;20437;-61
2021/09/24 03:31:10;;;;;;;14.60;7.63;;;6.60;99.90;;;;;;4124674;28;20034;-68
2021/09/24 03:33:11;;;;;;;16.87;7.90;;;6.60;99.90;;;;;;4123441;28;20034;-63
2021/09/24 03:35:13;;;;;;;11.40;7.57;;;6.60;99.90;;;;;;4125084;28;20038;-67
2021/09/24 03:37:14;;;;;;;12.07;7.77;;;6.70;99.90;;;;;;4123686;28;20748;-62
2021/09/24 03:39:15;;;;;;;15.37;8.43;;;6.70;99.90;;;;;;4123273;28;20050;-62
2021/09/24 03:41:16;;;;;;;15.73;9.57;;;6.80;99.90;;;;;;4123518;28;20461;-66
2021/09/24 03:43:17;;;;;;;13.20;7.87;;;6.80;99.90;;;;;;4124751;28;20430;-65
2021/09/24 03:45:18;;;;;;;13.23;7.70;;;6.80;99.90;;;;;;4123148;28;20030;-68
2021/09/24 03:47:19;;;;;;;16.47;8.60;;;6.80;99.90;;;;;;4123691;28;20085;-71
2021/09/24 03:49:21;;;;;;;14.37;8.23;;;6.80;99.90;;;;;;4123958;28;20874;-65
2021/09/24 03:51:22;;;;;;;13.53;8.13;;;6.80;99.90;;;;;;4122627;28;20039;-61
2021/09/24 03:53:23;;;;;;;19.93;8.77;;;6.70;99.90;;;;;;4123621;28;20185;-62
2021/09/24 03:55:24;;;;;;;19.30;8.37;;;6.60;99.90;;;;;;4123863;28;20430;-69
2021/09/24 03:57:26;;;;;;;15.37;8.77;;;6.60;99.90;;;;;;4123086;28;20043;-61
2021/09/24 03:59:27;;;;;;;16.27;8.87;;;6.60;99.90;;;;;;4120156;28;20094;-66
2021/09/24 04:01:28;;;;;;;15.73;8.90;;;6.50;99.90;;;;;;4121829;28;20074;-62
2021/09/24 04:03:30;;;;;;;15.87;8.27;;;6.50;99.90;;;;;;4119246;28;20063;-62
2021/09/24 04:05:31;;;;;;;16.93;8.40;;;6.50;99.90;;;;;;4120187;28;20097;-62
2021/09/24 04:07:32;;;;;;;15.43;8.27;;;6.50;99.90;;;;;;4118149;28;20054;-70
2021/09/24 04:09:33;;;;;;;15.43;8.47;;;6.50;99.90;;;;;;4119536;28;20050;-68
2021/09/24 04:11:34;;;;;;;14.97;8.67;;;6.50;99.90;;;;;;4118484;28;20042;-63
2021/09/24 04:13:35;;;;;;;14.43;8.60;;;6.50;99.90;;;;;;4121854;28;20438;-67
2021/09/24 04:15:36;;;;;;;20.07;10.00;;;6.50;99.90;;;;;;4118129;28;20054;-63
2021/09/24 04:17:38;;;;;;;20.07;10.37;;;6.40;99.90;;;;;;4123019;28;20053;-68
2021/09/24 04:19:39;;;;;;;14.40;9.43;;;6.40;99.90;;;;;;4108415;28;20030;-69
2021/09/24 04:21:41;;;;;;;15.20;8.40;;;6.30;99.90;;;;;;4121128;28;20112;-65
2021/09/24 04:23:42;;;;;;;15.73;8.50;;;6.20;99.90;;;;;;4122123;28;20521;-62
2021/09/24 04:25:43;;;;;;;15.00;8.50;;;6.10;99.90;;;;;;4118459;28;20467;-63
2021/09/24 04:27:45;;;;;;;16.43;8.43;;;6.10;99.90;;;;;;4121871;28;20498;-68
2021/09/24 04:29:46;;;;;;;15.17;9.00;;;6.00;99.90;;;;;;4115443;28;20092;-65
2021/09/24 04:31:47;;;;;;;15.73;8.73;;;6.10;99.90;;;;;;4124538;28;20089;-69
2021/09/24 04:33:48;;;;;;;16.30;9.60;;;6.00;99.90;;;;;;4123588;28;20462;-62
2021/09/24 04:35:49;;;;;;;19.07;10.33;;;6.00;99.90;;;;;;4124271;28;20038;-65
2021/09/24 04:37:53;;;;;;;17.60;9.60;;;6.10;99.90;;;;;;4122976;28;20533;-63
2021/09/24 04:39:55;;;;;;;18.47;9.73;;;6.10;99.90;;;;;;4120813;28;20050;-66
2021/09/24 04:41:56;;;;;;;17.70;8.23;;;6.00;99.90;;;;;;4123669;28;20046;-65
2021/09/24 04:43:57;;;;;;;16.33;8.80;;;6.10;99.90;;;;;;4124788;28;20042;-68
2021/09/24 04:45:58;;;;;;;14.20;8.47;;;6.10;99.90;;;;;;4124305;28;20050;-61
2021/09/24 04:47:59;;;;;;;17.17;9.07;;;6.20;99.90;;;;;;4124250;28;20541;-60
2021/09/24 04:50:05;;;;;;;15.80;8.97;;;6.30;99.90;;;;;;4117726;28;20163;-62
2021/09/24 04:52:07;;;;;;;13.80;7.93;;;6.30;99.90;;;;;;4124404;28;20106;-63
2021/09/24 04:54:08;;;;;;;19.93;9.60;;;6.20;99.90;;;;;;4124445;28;20148;-65
2021/09/24 04:56:09;;;;;;;25.97;11.90;;;6.30;99.90;;;;;;4124381;28;20093;-70
2021/09/24 04:58:11;;;;;;;23.23;10.53;;;6.30;99.90;;;;;;4125462;28;20442;-69
2021/09/24 05:00:12;;;;;;;19.67;10.03;;;6.30;99.90;;;;;;4118488;28;20050;-66
2021/09/24 05:02:14;;;;;;;21.40;10.47;;;6.40;99.90;;;;;;4125128;28;20395;-68
2021/09/24 05:04:16;;;;;;;20.33;10.97;;;6.40;99.90;;;;;;4124152;28;20474;-63
2021/09/24 05:06:17;;;;;;;23.80;11.57;;;6.50;99.90;;;;;;4125308;28;20116;-62
2021/09/24 05:08:18;;;;;;;26.43;13.33;;;6.80;99.90;;;;;;4124111;28;20812;-66
2021/09/24 05:10:19;;;;;;;28.13;12.00;;;7.00;99.90;;;;;;4119878;28;20766;-62
2021/09/24 05:12:20;;;;;;;30.10;13.67;;;7.20;99.90;;;;;;4122847;28;20042;-63
2021/09/24 05:14:21;;;;;;;22.93;12.10;;;7.40;99.90;;;;;;4124652;28;20743;-62
2021/09/24 05:16:22;;;;;;;20.63;10.93;;;7.60;99.90;;;;;;4121583;28;20136;-63
2021/09/24 05:18:25;;;;;;;15.57;9.83;;;7.80;99.90;;;;;;4120932;28;20113;-61
2021/09/24 05:20:27;;;;;;;28.33;13.07;;;7.90;99.90;;;;;;4124053;28;20034;-61
2021/09/24 05:22:28;;;;;;;21.90;10.50;;;8.20;99.90;;;;;;4125262;28;20085;-57
2021/09/24 05:24:29;;;;;;;19.87;9.97;;;8.40;99.90;;;;;;4126581;28;20509;-63
2021/09/24 05:26:31;;;;;;;19.90;10.03;;;8.80;99.90;;;;;;4126280;28;20038;-64
2021/09/24 05:28:32;;;;;;;23.83;13.00;;;9.10;99.90;;;;;;4126452;28;20042;-61
2021/09/24 05:30:33;;;;;;;19.40;10.97;;;9.50;99.90;;;;;;4123016;28;20042;-62
2021/09/24 05:32:34;;;;;;;18.93;10.93;;;9.50;99.90;;;;;;4124596;28;20050;-60
2021/09/24 05:34:37;;;;;;;18.77;9.10;;;9.50;99.90;;;;;;4125270;28;20097;-67
2021/09/24 05:36:38;;;;;;;15.27;8.20;;;9.40;99.90;;;;;;4125868;28;20449;-62
2021/09/24 05:38:40;;;;;;;13.50;8.27;;;9.50;99.90;;;;;;4122766;28;20145;-64
2021/09/24 05:40:41;;;;;;;19.20;8.67;;;9.80;99.90;;;;;;4125799;28;20035;-63
2021/09/24 05:42:42;;;;;;;21.07;8.97;;;9.90;99.90;;;;;;4125308;28;20491;-61
2021/09/24 05:44:43;;;;;;;21.10;11.23;;;10.10;99.90;;;;;;4113648;28;20921;-60
2021/09/24 05:46:44;;;;;;;19.17;11.53;;;10.40;99.90;;;;;;4109321;28;20094;-62
2021/09/24 05:48:46;;;;;;;13.13;8.00;;;10.70;99.90;;;;;;4109975;28;20035;-61
2021/09/24 05:50:47;;;;;;;14.17;7.80;;;10.90;99.90;;;;;;4118733;28;20038;-62
2021/09/24 05:52:51;;;;;;;19.47;9.07;;;10.90;99.90;;;;;;4121434;28;20474;-60
2021/09/24 05:54:54;;;;;;;24.67;8.63;;;10.80;99.90;;;;;;4120775;28;20344;-64
2021/09/24 05:56:55;;;;;;;21.00;8.80;;;10.60;99.90;;;;;;4120294;28;20085;-62
2021/09/24 05:58:56;;;;;;;23.80;11.67;;;10.20;99.90;;;;;;4121372;28;20109;-64
2021/09/24 06:00:57;;;;;;;21.10;11.73;;;9.80;99.90;;;;;;4118930;28;20034;-61
2021/09/24 06:02:58;;;;;;;16.20;9.70;;;9.60;99.90;;;;;;4120596;28;20062;-62
2021/09/24 06:04:59;;;;;;;15.80;8.17;;;9.40;99.90;;;;;;4119341;28;20073;-61
2021/09/24 06:07:00;;;;;;;15.30;8.57;;;9.20;99.90;;;;;;4121243;28;20084;-60
2021/09/24 06:09:02;;;;;;;18.40;9.20;;;9.20;99.90;;;;;;4119943;28;20821;-62
2021/09/24 06:11:04;;;;;;;15.70;7.97;;;9.60;99.90;;;;;;4120089;28;20085;-62
2021/09/24 06:13:06;;;;;;;14.63;7.53;;;9.80;99.90;;;;;;4122203;28;20445;-58
2021/09/24 06:15:08;;;;;;;11.77;7.60;;;10.00;99.90;;;;;;4122510;28;20172;-64
2021/09/24 06:17:11;;;;;;;11.67;7.50;;;10.10;99.90;;;;;;4124491;28;20034;-61
2021/09/24 06:19:12;;;;;;;14.70;7.13;;;10.30;99.90;;;;;;4121177;28;20853;-62
2021/09/24 06:21:13;;;;;;;11.53;7.33;;;10.50;99.90;;;;;;4119665;28;20614;-61
2021/09/24 06:23:15;;;;;;;10.40;5.90;;;10.80;99.90;;;;;;4121490;28;20112;-62
2021/09/24 06:25:17;;;;;;;8.63;5.40;;;11.00;99.90;;;;;;4120425;28;20184;-62
2021/09/24 06:27:19;;;;;;;13.60;6.80;;;10.90;99.90;;;;;;4119228;28;20049;-63
2021/09/24 06:29:20;;;;;;;11.77;7.97;;;11.00;99.90;;;;;;4119905;28;20084;-64
2021/09/24 06:31:21;;;;;;;13.67;7.73;;;11.20;99.90;;;;;;4119217;28;20042;-68
2021/09/24 06:33:22;;;;;;;13.07;7.50;;;11.40;99.90;;;;;;4121720;28;20068;-66
2021/09/24 06:35:23;;;;;;;11.13;7.33;;;11.60;99.90;;;;;;4118763;28;20038;-66
2021/09/24 06:37:24;;;;;;;11.23;7.23;;;11.60;99.90;;;;;;4121841;28;20510;-64
2021/09/24 06:39:26;;;;;;;12.93;6.40;;;11.80;99.90;;;;;;4120579;28;20585;-63
2021/09/24 06:41:27;;;;;;;17.13;7.30;;;12.00;99.90;;;;;;4121134;28;20092;-62
2021/09/24 06:43:28;;;;;;;12.13;7.90;;;12.00;99.90;;;;;;4117597;28;20100;-65
2021/09/24 06:45:31;;;;;;;10.90;7.40;;;12.20;99.90;;;;;;4122709;28;20027;-66
2021/09/24 06:47:32;;;;;;;12.60;6.37;;;12.40;99.90;;;;;;4114732;28;20454;-63
2021/09/24 06:49:35;;;;;;;10.20;6.57;;;12.50;99.90;;;;;;4122312;28;20030;-63
2021/09/24 06:51:36;;;;;;;13.57;7.03;;;12.70;99.90;;;;;;4122771;28;20022;-66
2021/09/24 06:53:37;;;;;;;11.57;6.13;;;12.80;99.90;;;;;;4124172;28;20034;-61
2021/09/24 06:55:38;;;;;;;13.60;6.93;;;13.00;99.90;;;;;;4124729;28;20026;-64
2021/09/24 06:57:40;;;;;;;16.80;8.03;;;12.80;99.90;;;;;;4118165;28;20046;-61
2021/09/24 06:59:41;;;;;;;13.80;6.87;;;12.80;99.90;;;;;;4121300;28;20030;-69
2021/09/24 07:01:44;;;;;;;13.97;7.87;;;13.00;99.90;;;;;;4120088;28;20096;-67
2021/09/24 07:03:45;;;;;;;15.60;7.43;;;13.10;99.90;;;;;;4120386;28;20054;-67
2021/09/24 07:05:46;;;;;;;12.87;6.77;;;13.30;99.90;;;;;;4122180;28;20038;-67
2021/09/24 07:07:48;;;;;;;11.63;6.50;;;14.00;99.90;;;;;;4124845;28;20031;-67
2021/09/24 07:09:50;;;;;;;10.40;6.63;;;14.10;99.90;;;;;;4122719;28;20081;-62
2021/09/24 07:11:51;;;;;;;8.33;6.33;;;14.60;99.90;;;;;;4124795;28;20447;-68
2021/09/24 07:13:53;;;;;;;9.37;6.00;;;14.80;99.90;;;;;;4123266;28;20081;-61
2021/09/24 07:15:54;;;;;;;13.07;6.00;;;15.10;99.90;;;;;;4120026;28;20176;-60
2021/09/24 07:17:55;;;;;;;11.87;6.63;;;14.90;99.90;;;;;;4123280;28;20498;-61
2021/09/24 07:19:57;;;;;;;8.13;5.93;;;14.80;99.90;;;;;;4124766;28;20034;-60
2021/09/24 07:21:58;;;;;;;10.20;6.13;;;15.10;99.90;;;;;;4123547;28;20038;-61
2021/09/24 07:24:00;;;;;;;16.47;10.63;;;15.10;99.90;;;;;;4124498;28;20089;-61
2021/09/24 07:26:01;;;;;;;54.70;29.30;;;15.30;99.90;;;;;;4123614;28;20057;-60
2021/09/24 07:28:02;;;;;;;19.15;12.05;;;15.40;99.90;;;;;;4124321;28;20027;-61
2021/09/24 07:30:04;;;;;;;9.95;6.35;;;15.70;99.90;;;;;;4123936;28;20030;-60
2021/09/24 07:32:05;;;;;;;8.70;6.43;;;15.60;99.90;;;;;;4124263;28;20034;-62
2021/09/24 07:34:06;;;;;;;17.60;11.90;;;15.50;99.90;;;;;;4124627;28;20038;-57
2021/09/24 07:36:08;;;;;;;17.63;9.18;;;15.60;99.90;;;;;;4121294;28;20518;-60
2021/09/24 07:38:09;;;;;;;10.68;6.82;;;15.60;99.90;;;;;;4124328;28;20100;-60
2021/09/24 07:40:11;;;;;;;23.83;12.00;;;15.50;99.90;;;;;;4123137;28;20515;-61
2021/09/24 07:42:12;;;;;;;20.23;9.50;;;15.40;99.90;;;;;;4124600;28;20046;-64
2021/09/24 07:44:13;;;;;;;15.75;8.15;;;15.30;99.90;;;;;;4123393;28;20034;-62
2021/09/24 07:46:16;;;;;;;17.05;8.15;;;15.30;99.90;;;;;;4124153;28;20034;-58
2021/09/24 07:48:17;;;;;;;22.83;10.70;;;15.10;99.90;;;;;;4123712;28;20091;-61
2021/09/24 07:50:18;;;;;;;11.55;8.00;;;14.70;99.90;;;;;;4124747;28;20826;-65
2021/09/24 07:52:19;;;;;;;22.90;11.18;;;14.20;99.90;;;;;;4122401;28;20440;-64
2021/09/24 07:54:21;;;;;;;22.08;10.43;;;13.80;99.90;;;;;;4123128;28;20073;-60
2021/09/24 07:56:24;;;;;;;9.98;6.05;;;13.50;99.90;;;;;;4120126;28;20050;-62
2021/09/24 07:58:25;;;;;;;10.07;7.10;;;13.20;99.90;;;;;;4123652;28;20046;-61
2021/09/24 08:00:28;;;;;;;15.13;7.20;;;12.90;99.90;;;;;;4123409;28;20097;-63
2021/09/24 08:02:29;;;;;;;13.77;6.53;;;12.80;99.90;;;;;;4122291;28;20160;-62
2021/09/24 08:04:30;;;;;;;9.73;5.80;;;12.50;99.90;;;;;;4135173;28;20054;-60
2021/09/24 08:06:31;;;;;;;16.03;7.53;;;12.40;99.90;;;;;;4112942;28;20185;-62
2021/09/24 08:08:32;;;;;;;10.93;6.90;;;12.30;99.90;;;;;;4128092;28;20187;-62
2021/09/24 08:10:34;;;;;;;9.10;5.87;;;12.20;99.90;;;;;;4142024;28;20092;-62
2021/09/24 08:12:36;;;;;;;14.53;7.40;;;12.20;99.90;;;;;;4143596;28;20061;-63
2021/09/24 08:14:37;;;;;;;9.83;5.63;;;12.10;99.90;;;;;;4126044;28;20104;-62
2021/09/24 08:16:38;;;;;;;10.10;6.47;;;12.10;99.90;;;;;;4127500;28;20113;-62
2021/09/24 08:18:39;;;;;;;11.00;5.73;;;12.10;99.90;;;;;;4125941;28;20085;-62
2021/09/24 08:20:41;;;;;;;11.73;5.90;;;12.00;99.90;;;;;;4127244;28;20046;-62
2021/09/24 08:22:43;;;;;;;9.50;6.00;;;12.00;99.90;;;;;;4125106;28;20096;-61
2021/09/24 08:24:44;;;;;;;8.83;5.77;;;11.90;99.90;;;;;;4127419;28;20448;-62
2021/09/24 08:26:45;;;;;;;12.07;6.60;;;11.90;99.90;;;;;;4125517;28;20034;-62
2021/09/24 08:28:46;;;;;;;14.97;6.50;;;11.90;99.90;;;;;;4127082;28;20717;-61
2021/09/24 08:30:48;;;;;;;10.40;5.47;;;11.90;99.90;;;;;;4124504;28;20182;-62
2021/09/24 08:32:49;;;;;;;9.50;5.57;;;11.90;99.90;;;;;;4125640;28;20022;-62
2021/09/24 08:34:50;;;;;;;11.03;5.63;;;11.80;99.90;;;;;;4126533;28;20371;-62
2021/09/24 08:36:52;;;;;;;9.63;6.13;;;11.80;99.90;;;;;;4125870;28;20034;-65
2021/09/24 08:38:53;;;;;;;8.97;5.73;;;11.80;99.90;;;;;;4125948;28;20528;-62
2021/09/24 08:40:54;;;;;;;9.33;5.93;;;11.70;99.90;;;;;;4125520;28;20050;-68
2021/09/24 08:42:56;;;;;;;15.10;6.90;;;11.70;99.90;;;;;;4127459;28;20034;-62
2021/09/24 08:44:57;;;;;;;20.20;7.13;;;11.70;99.90;;;;;;4125891;28;20034;-69
2021/09/24 08:46:59;;;;;;;9.90;5.90;;;11.70;99.90;;;;;;4127073;28;20873;-62
2021/09/24 08:49:05;;;;;;;10.33;5.37;;;11.80;99.90;;;;;;4126641;28;20117;-69
2021/09/24 08:51:08;;;;;;;8.97;5.90;;;11.70;99.90;;;;;;4114159;28;20042;-64
2021/09/24 08:53:11;;;;;;;11.87;6.30;;;11.60;99.90;;;;;;4113511;28;20046;-66
2021/09/24 08:55:13;;;;;;;12.37;6.53;;;11.50;99.90;;;;;;4127393;28;20752;-64
2021/09/24 08:57:16;;;;;;;10.00;6.03;;;11.50;99.90;;;;;;4125544;28;20100;-69
2021/09/24 08:59:18;;;;;;;11.13;6.23;;;11.40;99.90;;;;;;4126638;28;20545;-70
2021/09/24 09:01:19;;;;;;;19.13;8.53;;;11.40;99.90;;;;;;4125825;28;20038;-60
2021/09/24 09:03:20;;;;;;;14.80;6.23;;;11.30;99.90;;;;;;4125853;28;20189;-72
2021/09/24 09:05:23;;;;;;;10.37;6.00;;;11.30;99.90;;;;;;4125878;28;20038;-64
2021/09/24 09:07:24;;;;;;;11.30;5.67;;;11.20;99.90;;;;;;4124366;28;20054;-63
2021/09/24 09:09:37;;;;;;;11.37;6.40;;;11.20;99.90;;;;;;4128570;28;20133;-65
2021/09/24 09:11:38;;;;;;;13.23;6.93;;;11.20;99.90;;;;;;4134513;28;20034;-70
2021/09/24 09:13:44;;;;;;;12.40;6.67;;;11.20;99.90;;;;;;4110576;28;20039;-68
2021/09/24 09:15:58;;;;;;;11.00;6.17;;;11.10;99.90;;;;;;4109291;28;20035;-66
2021/09/24 09:17:59;;;;;;;11.43;6.13;;;11.20;99.90;;;;;;4109768;28;20184;-62
2021/09/24 09:20:30;;;;;;;9.73;6.37;;;11.10;99.90;;;;;;4123367;28;20085;-68
2021/09/24 09:22:31;;;;;;;;;;;11.10;99.90;;;;;;4117949;28;20089;-73
2021/09/24 09:24:42;;;;;;;10.33;6.23;;;11.10;99.90;;;;;;4124328;28;19909;-62
2021/09/24 09:26:44;;;;;;;11.33;7.30;;;11.10;99.90;;;;;;4126701;28;20597;-63
2021/09/24 09:28:51;;;;;;;10.23;6.60;;;11.10;99.90;;;;;;4125847;28;20034;-69
2021/09/24 09:30:52;;;;;;;11.30;6.67;;;11.10;99.90;;;;;;4126929;28;20030;-66
2021/09/24 09:33:08;;;;;;;9.53;7.27;;;11.00;99.90;;;;;;4123814;28;20052;-71
2021/09/24 09:35:10;;;;;;;10.27;6.87;;;11.00;99.90;;;;;;4124614;28;20122;-64
2021/09/24 09:37:19;;;;;;;9.77;6.60;;;11.00;99.90;;;;;;4124966;28;20034;-64
2021/09/24 09:39:20;;;;;;;9.30;6.33;;;10.90;99.90;;;;;;4126758;28;20101;-64
2021/09/24 09:41:22;;;;;;;25.90;6.60;;;10.90;99.90;;;;;;4124672;28;20105;-71
2021/09/24 09:43:45;;;;;;;10.20;6.87;;;10.90;99.90;;;;;;4126350;28;20022;-59
2021/09/24 09:45:47;;;;;;;13.07;7.17;;;10.90;99.90;;;;;;4125000;28;20092;-68
2021/09/24 09:47:49;;;;;;;11.03;6.77;;;10.90;99.90;;;;;;4124085;28;20026;-69
2021/09/24 09:50:10;;;;;;;10.33;6.70;;;10.90;99.90;;;;;;4125053;28;20040;-68
2021/09/24 09:52:16;;;;;;;;;;;10.90;99.90;;;;;;4126242;28;20112;-68
2021/09/24 09:54:29;;;;;;;10.93;6.40;;;11.00;99.90;;;;;;4125113;28;19937;-66
2021/09/24 09:56:50;;;;;;;9.53;5.47;;;11.00;99.90;;;;;;4126058;28;20375;-64
2021/09/24 09:58:51;;;;;;;26.85;11.18;;;11.00;99.90;;;;;;4124685;28;20039;-62
2021/09/24 10:00:57;;;;;;;12.97;6.57;;;10.90;99.90;;;;;;4126058;28;20034;-62
2021/09/24 10:03:06;;;;;;;15.77;6.90;;;10.90;99.90;;;;;;4124185;28;20050;-61
2021/09/24 10:05:07;;;;;;;14.70;6.90;;;10.90;99.90;;;;;;4124077;28;20046;-62
2021/09/24 10:07:16;;;;;;;12.60;7.10;;;11.00;99.90;;;;;;4124962;28;20036;-63
2021/09/24 10:09:22;;;;;;;15.93;8.67;;;11.00;99.90;;;;;;4125174;28;20426;-69
2021/09/24 10:11:37;;;;;;;12.13;7.13;;;11.10;99.90;;;;;;4124868;28;20089;-63
2021/09/24 10:14:10;;;;;;;10.13;7.07;;;11.20;99.90;;;;;;4126292;28;20085;-73
2021/09/24 10:16:11;;;;;;;12.33;7.27;;;11.10;99.90;;;;;;4122889;28;20502;-72
2021/09/24 10:18:13;;;;;;;11.87;7.60;;;11.10;99.90;;;;;;4121557;28;20118;-68
2021/09/24 10:20:15;;;;;;;14.63;7.80;;;11.10;99.90;;;;;;4121073;28;20088;-66
2021/09/24 10:22:17;;;;;;;15.67;9.53;;;11.10;99.90;;;;;;4125521;28;20104;-63
2021/09/24 10:24:19;;;;;;;12.77;7.73;;;11.10;99.90;;;;;;4124247;28;20038;-66
2021/09/24 10:26:40;;;;;;;34.20;15.57;;;11.00;99.90;;;;;;4125677;28;20034;-69
2021/09/24 10:28:42;;;;;;;41.40;19.37;;;11.00;99.90;;;;;;4123286;28;20447;-64
2021/09/24 10:30:44;;;;;;;41.37;17.57;;;11.00;99.90;;;;;;4125617;28;20428;-68
2021/09/24 10:32:57;;;;;;;18.30;9.70;;;11.10;99.90;;;;;;4123976;28;20078;-62